Flight Track Log - Related Links

Times and Time Zones

All times are in EDT time to prevent confusion due to time zone crossing. See the N509QS flight status page for this flight to view local times or setup timezone preferences in your user account.

Time Position Orientation Groundspeed Altitude Reporting Facility
EDT Latitude Longitude Course Direction KTS MPH feet Rate Location/Type
Sat 12:59:00 PM 40.9000 -74.0333 304° West 207 238 1,700  Level New York TRACON
Sat 01:00:00 PM 40.9333 -74.1000 304° West 243 280 1,700 619 Level New York TRACON
Sat 01:01:06 PM 40.9500 -74.1833 285° West 250 288 3,000 667 Climbing New York TRACON
Sat 01:02:06 PM 41.0167 -74.2167 339° North 267 307 3,100  Climbing New York TRACON
Sat 01:03:06 PM 41.0833 -74.1833 21° North 275 316 3,000 -50 Descending New York TRACON
Sat 01:04:06 PM 41.1500 -74.1333 29° Northeast 280 322 3,000  Level New York TRACON
Sat 01:05:06 PM 41.1833 -74.0500 62° Northeast 269 310 3,000  Level New York TRACON
Sat 01:06:06 PM 41.2167 -73.9833 56° Northeast 228 262 3,000  Level New York TRACON
Sat 01:07:06 PM 41.2833 -73.9667 11° North 208 239 3,000  Level New York TRACON
Sat 01:08:06 PM 41.3333 -73.9500 14° North 210 242 3,000  Level New York TRACON
Sat 01:09:06 PM 41.3167 -73.9000 114° Southeast 154 177 3,000  Level New York TRACON
Sat 01:10:00 PM 41.2833 -73.8667 143° Southeast 153 176 3,000  Level New York TRACON
Sat 01:11:06 PM 41.2333 -73.8333 153° Southeast 157 181 3,000  Level New York TRACON
Sat 01:12:06 PM 41.2000 -73.8167 159° South 153 176 3,000 -350 Level New York TRACON
Sat 01:13:06 PM 41.1667 -73.7833 143° Southeast 160 184 2,300 -750 Descending New York TRACON
Sat 01:14:06 PM 41.1167 -73.7500 153° Southeast 155 178 1,500 -700 Descending New York TRACON
Sat 01:15:06 PM 41.1000 -73.7333 143° Southeast 130 150 900 -600 Descending New York TRACON
Sat 01:17:00 PM 41.0667 -73.7000 207° Southwest  Level FlightAware Approximate
Sat 01:24:00 PM 41.0669 -73.7076 207° Southwest  Level Estimated
Sat 01:25:00 PM 41.0667 -73.7000 207° Southwest  Level FlightAware Approximate
Sat 01:26:00 PM 41.0669 -73.7076 207° Southwest  Level Estimated
Sat 01:27:00 PM 41.0667 -73.7000 207° Southwest  Level FlightAware Approximate
Sat 01:28:00 PM 41.0669 -73.7076 207° Southwest  Level Estimated
Sat 01:29:00 PM 41.0667 -73.7000 207° Southwest  Level FlightAware Approximate
Sat 01:30:00 PM 41.0669 -73.7076 207° Southwest  Level Estimated

Login

Don't have an account? Register now (free) for customized features, flight alerts, and more!